createdAt,value
2019-01-08T00:01:41.110Z,55.30
2019-01-08T00:04:09.341Z,55.30
2019-01-08T00:06:37.577Z,55.30
2019-01-08T00:09:05.810Z,55.40
2019-01-08T00:11:34.053Z,55.40
2019-01-08T00:14:02.289Z,55.30
2019-01-08T00:16:34.021Z,55.30
2019-01-08T00:19:02.250Z,55.30
2019-01-08T00:21:30.498Z,55.30
2019-01-08T00:23:58.742Z,55.30
2019-01-08T00:26:26.977Z,55.20
2019-01-08T00:28:55.205Z,55.20
2019-01-08T00:31:23.449Z,55.30
2019-01-08T00:33:51.681Z,55.20
2019-01-08T00:36:19.926Z,55.20
2019-01-08T00:38:48.489Z,55.20
2019-01-08T00:41:16.721Z,55.30
2019-01-08T00:43:44.953Z,55.30
2019-01-08T00:46:13.237Z,55.30
2019-01-08T00:48:41.471Z,55.30
2019-01-08T00:51:09.718Z,55.40
2019-01-08T00:53:38.049Z,55.40
2019-01-08T00:56:06.353Z,55.40
2019-01-08T00:58:34.581Z,55.40
2019-01-08T01:01:02.831Z,55.40
2019-01-08T01:03:31.069Z,55.30
2019-01-08T01:05:59.313Z,55.40
2019-01-08T01:08:27.891Z,55.30
2019-01-08T01:10:56.165Z,55.40
2019-01-08T01:13:24.397Z,55.40
2019-01-08T01:15:52.629Z,55.40
2019-01-08T01:18:20.865Z,55.40
2019-01-08T01:20:49.666Z,55.50
2019-01-08T01:23:17.909Z,55.60
2019-01-08T01:25:46.141Z,55.60
2019-01-08T01:28:14.377Z,55.60
2019-01-08T01:30:42.779Z,55.60
2019-01-08T01:33:11.017Z,55.60
2019-01-08T01:35:39.245Z,55.60
2019-01-08T01:38:07.488Z,55.60
2019-01-08T01:40:35.717Z,55.60
2019-01-08T01:43:03.967Z,55.60
2019-01-08T01:45:32.193Z,55.60
2019-01-08T01:48:00.438Z,55.60
2019-01-08T01:50:28.675Z,55.50
2019-01-08T01:52:57.485Z,55.40
2019-01-08T01:55:25.713Z,55.50
2019-01-08T01:57:53.954Z,55.50
2019-01-08T02:00:22.186Z,55.60
2019-01-08T02:02:50.425Z,55.60
2019-01-08T02:05:18.654Z,55.60
2019-01-08T02:07:46.901Z,56.30
2019-01-08T02:10:15.143Z,55.60
2019-01-08T02:12:43.961Z,55.60
2019-01-08T02:15:12.190Z,55.60
2019-01-08T02:17:40.445Z,55.70
2019-01-08T02:20:08.672Z,55.60
2019-01-08T02:22:36.918Z,55.60
2019-01-08T02:25:05.613Z,55.70
2019-01-08T02:27:33.865Z,55.60
2019-01-08T02:30:02.098Z,55.60
2019-01-08T02:32:30.345Z,55.70
2019-01-08T02:34:58.582Z,55.70
2019-01-08T02:37:26.822Z,56.40
2019-01-08T02:39:55.626Z,55.80
2019-01-08T02:42:23.870Z,55.80
2019-01-08T02:44:52.102Z,55.70
2019-01-08T02:47:20.355Z,55.90
2019-01-08T02:49:48.581Z,55.80
2019-01-08T02:52:16.841Z,55.80
2019-01-08T02:54:45.119Z,55.80
2019-01-08T02:57:13.582Z,55.70
2019-01-08T02:59:41.831Z,55.80
2019-01-08T03:02:10.386Z,55.80
2019-01-08T03:04:38.662Z,55.80
2019-01-08T03:07:06.941Z,55.80
2019-01-08T03:09:36.831Z,55.70
2019-01-08T03:12:05.129Z,55.70
2019-01-08T03:14:33.373Z,56.10
2019-01-08T03:17:02.175Z,55.80
2019-01-08T03:19:30.418Z,55.90
2019-01-08T03:21:58.655Z,56.00
2019-01-08T03:24:26.893Z,55.90
2019-01-08T03:26:55.695Z,55.90
2019-01-08T03:29:23.932Z,56.00
2019-01-08T03:31:52.176Z,55.90
2019-01-08T03:34:20.729Z,55.90
2019-01-08T03:36:48.973Z,55.90
2019-01-08T03:39:17.221Z,55.90
2019-01-08T03:41:45.458Z,55.90
2019-01-08T03:44:13.701Z,55.80
2019-01-08T03:46:41.933Z,55.80
2019-01-08T03:49:10.185Z,55.80
2019-01-08T03:51:38.421Z,55.80
2019-01-08T03:54:06.674Z,55.80
2019-01-08T03:56:34.901Z,55.80
2019-01-08T03:59:03.149Z,55.80
2019-01-08T04:01:31.381Z,55.80
2019-01-08T04:03:59.637Z,56.50
2019-01-08T04:06:27.878Z,55.80
2019-01-08T04:08:56.109Z,55.80
2019-01-08T04:11:24.375Z,55.90
2019-01-08T04:13:52.627Z,55.80
2019-01-08T04:16:20.861Z,55.80
2019-01-08T04:18:49.116Z,56.40
2019-01-08T04:21:17.358Z,55.80
2019-01-08T04:23:45.614Z,55.80
2019-01-08T04:26:13.886Z,55.80
2019-01-08T04:28:42.133Z,55.80
2019-01-08T04:31:10.647Z,55.90
2019-01-08T04:33:38.877Z,55.80
2019-01-08T04:36:07.153Z,55.80
2019-01-08T04:38:35.411Z,55.80
2019-01-08T04:41:03.646Z,55.80
2019-01-08T04:43:31.901Z,55.80
2019-01-08T04:46:00.199Z,55.80
2019-01-08T04:48:28.430Z,55.80
2019-01-08T04:50:56.678Z,55.80
2019-01-08T04:53:24.905Z,55.80
2019-01-08T04:55:53.149Z,55.80
2019-01-08T04:58:21.377Z,55.90
2019-01-08T05:00:49.622Z,55.80
2019-01-08T05:03:17.853Z,55.80
2019-01-08T05:05:46.708Z,55.90
2019-01-08T05:08:15.004Z,55.80
2019-01-08T05:10:43.253Z,55.80
2019-01-08T05:13:11.493Z,55.80
2019-01-08T05:15:39.730Z,55.90
2019-01-08T05:18:07.969Z,55.90
2019-01-08T05:20:36.227Z,55.80
2019-01-08T05:23:04.485Z,55.50
2019-01-08T05:25:32.718Z,54.50
2019-01-08T05:28:00.957Z,53.50
2019-01-08T05:30:29.781Z,52.80
2019-01-08T05:32:58.021Z,52.20
2019-01-08T05:35:26.277Z,51.40
2019-01-08T05:37:54.509Z,50.80
2019-01-08T05:40:22.763Z,50.80
2019-01-08T05:42:51.067Z,50.70
2019-01-08T05:45:19.325Z,50.70
2019-01-08T05:47:47.566Z,50.80
2019-01-08T05:50:16.370Z,51.10
2019-01-08T05:52:44.630Z,51.60
2019-01-08T05:55:12.862Z,51.40
2019-01-08T05:57:41.106Z,52.40
2019-01-08T06:00:16.281Z,51.90
2019-01-08T06:02:39.441Z,52.00
2019-01-08T06:05:07.691Z,53.20
2019-01-08T06:07:35.929Z,54.00
2019-01-08T06:10:07.302Z,53.90
2019-01-08T06:12:35.546Z,53.60
2019-01-08T06:15:03.951Z,53.40
2019-01-08T06:17:32.181Z,53.50
2019-01-08T06:20:00.502Z,53.40
2019-01-08T06:22:28.725Z,54.00
2019-01-08T06:24:56.973Z,53.50
2019-01-08T06:27:26.241Z,53.20
2019-01-08T06:29:54.473Z,53.40
2019-01-08T06:32:22.706Z,53.30
2019-01-08T06:34:51.522Z,53.60
2019-01-08T06:37:19.757Z,53.70
2019-01-08T06:39:48.005Z,53.80
2019-01-08T06:42:16.317Z,53.90
2019-01-08T06:44:44.581Z,54.70
2019-01-08T06:47:12.817Z,54.20
2019-01-08T06:49:41.069Z,54.20
2019-01-08T06:52:09.413Z,54.30
2019-01-08T06:54:37.663Z,54.40
2019-01-08T06:57:05.898Z,54.50
2019-01-08T06:59:34.169Z,54.60
2019-01-08T07:02:02.398Z,54.70
2019-01-08T07:04:30.641Z,54.70
2019-01-08T07:06:59.469Z,54.80
2019-01-08T07:09:27.710Z,54.80
2019-01-08T07:11:55.942Z,54.90
2019-01-08T07:14:24.185Z,54.80
2019-01-08T07:16:52.425Z,54.80
2019-01-08T07:19:20.666Z,54.80
2019-01-08T07:21:48.899Z,54.90
2019-01-08T07:24:17.137Z,54.90
2019-01-08T07:26:45.372Z,55.00
2019-01-08T07:29:14.181Z,55.00
2019-01-08T07:31:42.417Z,55.00
2019-01-08T07:34:10.659Z,54.90
2019-01-08T07:36:38.909Z,55.00
2019-01-08T07:39:07.145Z,55.10
2019-01-08T07:41:35.377Z,55.10
2019-01-08T07:44:04.182Z,55.10
2019-01-08T07:46:32.420Z,55.10
2019-01-08T07:49:00.673Z,55.20
2019-01-08T07:51:29.484Z,55.20
2019-01-08T07:53:57.713Z,55.10
2019-01-08T07:56:25.958Z,55.20
2019-01-08T07:58:54.190Z,55.20
2019-01-08T08:01:22.434Z,55.20
2019-01-08T08:03:50.669Z,55.20
2019-01-08T08:06:18.914Z,55.30
2019-01-08T08:08:47.813Z,55.30
2019-01-08T08:11:16.063Z,55.30
2019-01-08T08:13:44.305Z,55.20
2019-01-08T08:16:12.537Z,55.30
2019-01-08T08:18:40.769Z,55.30
2019-01-08T08:21:09.014Z,55.30
2019-01-08T08:23:37.525Z,55.40
2019-01-08T08:26:05.769Z,55.30
2019-01-08T08:28:34.019Z,55.30
2019-01-08T08:31:02.259Z,55.30
2019-01-08T08:33:30.513Z,55.30
2019-01-08T08:35:58.753Z,55.30
2019-01-08T08:38:26.986Z,55.40
2019-01-08T08:40:55.230Z,55.30
2019-01-08T08:43:23.462Z,55.30
2019-01-08T08:45:51.702Z,55.30
2019-01-08T08:48:19.942Z,55.30
2019-01-08T08:50:48.178Z,55.30
2019-01-08T08:53:17.008Z,55.30
2019-01-08T08:55:45.242Z,55.30
2019-01-08T08:58:13.473Z,55.40
2019-01-08T09:00:41.961Z,55.40
2019-01-08T09:03:10.761Z,55.50
2019-01-08T09:05:39.006Z,55.40
2019-01-08T09:08:07.262Z,55.40
2019-01-08T09:10:35.498Z,55.50
2019-01-08T09:13:03.737Z,55.40
2019-01-08T09:15:31.988Z,55.40
2019-01-08T09:18:00.234Z,55.50
2019-01-08T09:20:28.465Z,55.40
2019-01-08T09:22:56.769Z,55.40
2019-01-08T09:25:25.008Z,56.00
2019-01-08T09:27:53.252Z,55.30
2019-01-08T09:30:21.949Z,55.40
2019-01-08T09:32:50.214Z,55.30
2019-01-08T09:35:18.461Z,55.30
2019-01-08T09:37:46.711Z,55.30
2019-01-08T09:40:14.938Z,55.30
2019-01-08T09:42:43.182Z,55.20
2019-01-08T09:45:11.409Z,55.20
2019-01-08T09:47:39.653Z,55.10
2019-01-08T09:50:08.349Z,55.20
2019-01-08T09:52:37.181Z,55.10
2019-01-08T09:55:05.796Z,55.10
2019-01-08T09:57:34.039Z,55.10
2019-01-08T10:00:02.293Z,55.10
2019-01-08T10:02:30.553Z,55.10
2019-01-08T10:04:58.786Z,55.10
2019-01-08T10:07:27.027Z,55.00
2019-01-08T10:09:55.258Z,55.00
2019-01-08T10:12:23.503Z,55.10
2019-01-08T10:14:51.734Z,55.10
2019-01-08T10:17:19.977Z,55.00
2019-01-08T10:19:48.214Z,55.10
2019-01-08T10:22:16.478Z,55.00
2019-01-08T10:24:44.706Z,55.00
2019-01-08T10:27:12.948Z,55.00
2019-01-08T10:29:41.205Z,54.90
2019-01-08T10:32:09.441Z,54.90
2019-01-08T10:34:37.673Z,54.90
2019-01-08T10:37:05.939Z,54.90
2019-01-08T10:39:34.244Z,54.90
2019-01-08T10:42:02.505Z,54.90
2019-01-08T10:44:30.734Z,54.90
2019-01-08T10:46:58.965Z,54.90
2019-01-08T10:49:27.219Z,55.00
2019-01-08T10:51:55.453Z,54.90
2019-01-08T10:54:23.690Z,54.90
2019-01-08T10:56:51.924Z,55.00
2019-01-08T10:59:20.170Z,54.90
2019-01-08T11:01:48.401Z,54.80
2019-01-08T11:04:16.670Z,54.90
2019-01-08T11:06:44.923Z,55.00
2019-01-08T11:09:13.157Z,54.90
2019-01-08T11:11:41.986Z,54.90
2019-01-08T11:14:10.223Z,54.90
2019-01-08T11:16:38.921Z,55.00
2019-01-08T11:19:07.170Z,55.00
2019-01-08T11:21:35.425Z,54.90
2019-01-08T11:24:03.690Z,55.00
2019-01-08T11:26:31.914Z,55.00
2019-01-08T11:29:00.730Z,55.00
2019-01-08T11:31:28.981Z,55.70
2019-01-08T11:33:57.221Z,55.00
2019-01-08T11:36:25.454Z,55.10
2019-01-08T11:38:53.697Z,55.60
2019-01-08T11:41:21.959Z,55.00
2019-01-08T11:43:50.193Z,55.00
2019-01-08T11:46:18.421Z,54.90
2019-01-08T11:48:46.665Z,55.00
2019-01-08T11:51:14.909Z,55.70
2019-01-08T11:53:43.719Z,54.90
2019-01-08T11:56:11.973Z,54.90
2019-01-08T11:58:40.794Z,54.80
2019-01-08T12:01:09.025Z,54.90
2019-01-08T12:03:37.266Z,54.90
2019-01-08T12:06:05.501Z,54.90
2019-01-08T12:08:33.742Z,54.90
2019-01-08T12:11:01.969Z,55.00
2019-01-08T12:13:30.214Z,55.00
2019-01-08T12:15:58.445Z,55.00
2019-01-08T12:18:26.685Z,55.00
2019-01-08T12:20:55.038Z,55.10
2019-01-08T12:23:23.369Z,55.00
2019-01-08T12:25:51.610Z,55.00
2019-01-08T12:28:20.514Z,54.90
2019-01-08T12:30:49.426Z,54.90
2019-01-08T12:33:17.657Z,54.90
2019-01-08T12:35:45.906Z,54.90
2019-01-08T12:38:14.139Z,54.80
2019-01-08T12:40:42.972Z,55.50
2019-01-08T12:43:11.202Z,54.90
2019-01-08T12:45:39.464Z,54.90
2019-01-08T12:48:07.694Z,55.00
2019-01-08T12:50:35.938Z,54.90
2019-01-08T12:53:04.178Z,55.00
2019-01-08T12:55:32.422Z,55.00
2019-01-08T12:58:00.650Z,55.00
2019-01-08T13:00:28.907Z,55.30
2019-01-08T13:02:57.151Z,57.10
2019-01-08T13:05:25.585Z,56.40
2019-01-08T13:07:53.820Z,56.20
2019-01-08T13:10:22.057Z,56.00
2019-01-08T13:12:50.291Z,55.80
2019-01-08T13:15:19.950Z,56.40
2019-01-08T13:17:48.178Z,56.10
2019-01-08T13:20:16.426Z,56.50
2019-01-08T13:22:44.671Z,56.40
2019-01-08T13:25:12.918Z,56.00
2019-01-08T13:27:41.152Z,55.90
2019-01-08T13:30:09.396Z,58.10
2019-01-08T13:32:38.197Z,57.10
2019-01-08T13:35:06.442Z,56.80
2019-01-08T13:37:34.696Z,56.40
2019-01-08T13:40:02.957Z,56.30
2019-01-08T13:42:31.190Z,56.10
2019-01-08T13:44:59.465Z,56.50
2019-01-08T13:47:27.697Z,56.40
2019-01-08T13:49:55.942Z,57.50
2019-01-08T13:52:24.177Z,57.20
2019-01-08T13:54:52.445Z,56.60
2019-01-08T13:57:20.674Z,56.20
2019-01-08T13:59:49.203Z,56.10
2019-01-08T14:02:17.474Z,56.00
2019-01-08T14:04:45.721Z,55.90
2019-01-08T14:07:13.949Z,55.70
2019-01-08T14:09:42.194Z,55.60
2019-01-08T14:12:10.449Z,55.30
2019-01-08T14:14:39.262Z,55.10
2019-01-08T14:17:07.696Z,55.00
2019-01-08T14:19:35.922Z,54.80
2019-01-08T14:22:04.170Z,54.90
2019-01-08T14:24:32.432Z,54.80
2019-01-08T14:27:00.677Z,54.80
2019-01-08T14:29:28.902Z,54.70
2019-01-08T14:31:57.171Z,54.70
2019-01-08T14:34:25.406Z,54.70
2019-01-08T14:36:53.649Z,55.00
2019-01-08T14:39:21.904Z,54.80
2019-01-08T14:41:50.160Z,54.90
2019-01-08T14:44:18.400Z,55.00
2019-01-08T14:46:46.643Z,55.50
2019-01-08T14:49:15.470Z,55.30
2019-01-08T14:51:43.733Z,54.70
2019-01-08T14:54:11.967Z,54.50
2019-01-08T14:56:40.197Z,54.50
2019-01-08T14:59:08.430Z,54.70
2019-01-08T15:01:36.676Z,54.70
2019-01-08T15:04:04.906Z,54.70
2019-01-08T15:06:33.145Z,54.80
2019-01-08T15:09:01.386Z,54.70
2019-01-08T15:11:29.654Z,54.70
2019-01-08T15:13:57.878Z,54.70
2019-01-08T15:16:26.117Z,54.70
2019-01-08T15:18:54.369Z,54.70
2019-01-08T15:21:22.610Z,54.80
2019-01-08T15:23:50.845Z,54.60
2019-01-08T15:26:19.105Z,54.70
2019-01-08T15:28:47.333Z,54.70
2019-01-08T15:31:16.816Z,54.70
2019-01-08T15:33:45.185Z,54.70
2019-01-08T15:36:13.997Z,54.70
2019-01-08T15:38:42.232Z,54.60
2019-01-08T15:41:10.473Z,55.30
2019-01-08T15:43:38.709Z,54.60
2019-01-08T15:46:06.937Z,55.80
2019-01-08T15:48:35.200Z,55.20
2019-01-08T15:51:03.430Z,55.70
2019-01-08T15:53:31.673Z,55.00
2019-01-08T15:55:59.906Z,55.00
2019-01-08T15:58:28.169Z,55.10
2019-01-08T16:00:56.396Z,55.50
2019-01-08T16:03:25.213Z,56.40
2019-01-08T16:05:53.446Z,55.70
2019-01-08T16:08:21.689Z,55.60
2019-01-08T16:10:49.922Z,55.30
2019-01-08T16:13:18.513Z,55.20
2019-01-08T16:15:46.760Z,55.20
2019-01-08T16:18:15.025Z,55.10
2019-01-08T16:20:43.273Z,55.30
2019-01-08T16:23:11.513Z,55.00
2019-01-08T16:25:39.745Z,55.00
2019-01-08T16:28:08.013Z,55.00
2019-01-08T16:30:36.260Z,55.00
2019-01-08T16:33:04.506Z,54.90
2019-01-08T16:35:32.737Z,55.30
2019-01-08T16:38:00.978Z,54.70
2019-01-08T16:40:29.234Z,54.60
2019-01-08T16:42:57.817Z,54.50
2019-01-08T16:45:26.045Z,54.40
2019-01-08T16:47:54.312Z,54.40
2019-01-08T16:50:22.539Z,54.40
2019-01-08T16:52:50.790Z,54.50
2019-01-08T16:55:19.049Z,54.50
2019-01-08T16:57:47.318Z,54.50
2019-01-08T17:00:15.724Z,54.60
2019-01-08T17:02:43.975Z,54.60
2019-01-08T17:05:12.201Z,54.70
2019-01-08T17:07:40.439Z,54.60
2019-01-08T17:10:08.757Z,54.60
2019-01-08T17:12:37.552Z,54.80
2019-01-08T17:15:05.793Z,54.70
2019-01-08T17:17:34.048Z,54.80
2019-01-08T17:20:02.294Z,54.80
2019-01-08T17:22:30.526Z,54.80
2019-01-08T17:24:58.770Z,54.80
2019-01-08T17:27:27.006Z,54.90
2019-01-08T17:29:55.278Z,55.50
2019-01-08T17:32:23.536Z,54.90
2019-01-08T17:34:51.780Z,55.00
2019-01-08T17:37:20.013Z,55.00
2019-01-08T17:39:48.266Z,55.20
2019-01-08T17:42:16.493Z,55.10
2019-01-08T17:44:44.826Z,55.10
2019-01-08T17:47:13.058Z,55.10
2019-01-08T17:49:41.886Z,55.10
2019-01-08T17:52:10.716Z,55.10
2019-01-08T17:54:39.069Z,55.00
2019-01-08T17:57:07.298Z,55.00
2019-01-08T17:59:35.547Z,55.00
2019-01-08T18:02:03.843Z,55.00
2019-01-08T18:04:32.149Z,55.00
2019-01-08T18:07:00.534Z,55.00
2019-01-08T18:09:28.782Z,55.00
2019-01-08T18:11:59.363Z,54.90
2019-01-08T18:14:27.317Z,54.90
2019-01-08T18:16:55.550Z,55.00
2019-01-08T18:19:23.797Z,55.40
2019-01-08T18:21:52.033Z,54.80
2019-01-08T18:24:20.276Z,54.70
2019-01-08T18:26:48.529Z,54.60
2019-01-08T18:29:16.765Z,54.50
2019-01-08T18:31:44.998Z,54.70
2019-01-08T18:34:13.294Z,55.40
2019-01-08T18:36:41.529Z,55.00
2019-01-08T18:39:09.763Z,54.90
2019-01-08T18:41:38.006Z,55.00
2019-01-08T18:44:06.242Z,54.80
2019-01-08T18:46:34.510Z,54.80
2019-01-08T18:49:03.309Z,55.00
2019-01-08T18:51:31.553Z,54.90
2019-01-08T18:53:59.791Z,54.90
2019-01-08T18:56:28.034Z,54.70
2019-01-08T18:58:56.337Z,55.00
2019-01-08T19:01:24.591Z,55.80
2019-01-08T19:03:59.776Z,55.40
2019-01-08T19:06:22.818Z,55.50
2019-01-08T19:09:22.929Z,55.40
2019-01-08T19:11:51.342Z,55.40
2019-01-08T19:14:21.438Z,55.40
2019-01-08T19:16:50.280Z,55.40
2019-01-08T19:19:18.506Z,55.40
2019-01-08T19:21:46.750Z,55.40
2019-01-08T19:24:14.987Z,55.30
2019-01-08T19:26:43.239Z,55.50
2019-01-08T19:29:11.497Z,55.40
2019-01-08T19:31:40.411Z,55.40
2019-01-08T19:34:09.590Z,55.30
2019-01-08T19:36:38.085Z,55.30
2019-01-08T19:39:06.953Z,55.40
2019-01-08T19:41:35.220Z,55.20
2019-01-08T19:44:03.622Z,55.30
2019-01-08T19:46:32.565Z,55.40
2019-01-08T19:49:00.798Z,55.50
2019-01-08T19:51:29.146Z,55.50
2019-01-08T19:53:57.400Z,55.30
2019-01-08T19:56:26.313Z,55.60
2019-01-08T19:58:54.546Z,55.20
2019-01-08T20:01:22.794Z,55.10
2019-01-08T20:03:51.030Z,55.30
2019-01-08T20:06:19.847Z,55.10
2019-01-08T20:08:48.794Z,55.10
2019-01-08T20:11:17.911Z,54.90
2019-01-08T20:13:46.143Z,55.20
2019-01-08T20:16:14.385Z,54.90
2019-01-08T20:18:45.322Z,55.00
2019-01-08T20:21:12.593Z,54.90
2019-01-08T20:23:40.829Z,55.00
2019-01-08T20:26:09.143Z,55.60
2019-01-08T20:28:37.403Z,54.70
2019-01-08T20:31:05.753Z,54.70
2019-01-08T20:33:33.986Z,54.70
2019-01-08T20:36:02.238Z,54.60
2019-01-08T20:38:30.469Z,54.80
2019-01-08T20:40:58.706Z,54.60
2019-01-08T20:43:27.541Z,54.60
2019-01-08T20:45:55.770Z,54.90
2019-01-08T20:48:24.085Z,54.80
2019-01-08T20:50:52.321Z,54.80
2019-01-08T20:53:20.566Z,55.00
2019-01-08T20:55:48.798Z,55.60
2019-01-08T20:58:17.049Z,55.60
2019-01-08T21:00:45.282Z,55.40
2019-01-08T21:03:13.535Z,55.30
2019-01-08T21:05:41.761Z,55.10
2019-01-08T21:08:10.036Z,55.20
2019-01-08T21:10:38.294Z,55.30
2019-01-08T21:13:06.533Z,55.10
2019-01-08T21:15:35.521Z,55.00
2019-01-08T21:18:07.103Z,55.00
2019-01-08T21:20:35.449Z,54.90
2019-01-08T21:23:03.765Z,54.90
2019-01-08T21:25:35.772Z,55.00
2019-01-08T21:28:04.059Z,55.00
2019-01-08T21:30:32.326Z,55.00
2019-01-08T21:33:01.177Z,54.80
2019-01-08T21:35:29.405Z,54.60
2019-01-08T21:37:57.649Z,54.80
2019-01-08T21:40:25.902Z,54.70
2019-01-08T21:42:54.142Z,54.60
2019-01-08T21:45:22.899Z,55.30
2019-01-08T21:47:54.312Z,54.80
2019-01-08T21:50:22.797Z,54.70
2019-01-08T21:52:51.060Z,54.60
2019-01-08T21:55:19.293Z,54.70
2019-01-08T21:57:47.561Z,55.00
2019-01-08T22:00:15.837Z,54.60
2019-01-08T22:02:44.318Z,54.60
2019-01-08T22:05:12.586Z,54.20
2019-01-08T22:07:40.853Z,54.40
2019-01-08T22:10:09.090Z,54.20
2019-01-08T22:12:37.338Z,54.20
2019-01-08T22:15:06.428Z,54.30
2019-01-08T22:17:34.670Z,54.20
2019-01-08T22:20:02.905Z,54.10
2019-01-08T22:22:31.257Z,54.30
2019-01-08T22:24:59.485Z,54.20
2019-01-08T22:27:27.769Z,54.20
2019-01-08T22:29:56.006Z,54.20
2019-01-08T22:32:24.246Z,54.20
2019-01-08T22:34:52.520Z,54.20
2019-01-08T22:37:20.771Z,54.20
2019-01-08T22:39:49.081Z,54.20
2019-01-08T22:42:17.440Z,54.20
2019-01-08T22:44:45.817Z,54.20
2019-01-08T22:47:14.093Z,54.10
2019-01-08T22:49:42.333Z,54.20
2019-01-08T22:52:10.929Z,54.20
2019-01-08T22:54:39.177Z,54.20
2019-01-08T22:57:07.409Z,54.10
2019-01-08T22:59:35.650Z,54.00
2019-01-08T23:02:04.054Z,54.00
2019-01-08T23:04:32.305Z,54.00
2019-01-08T23:07:00.540Z,54.10
2019-01-08T23:09:28.778Z,54.00
2019-01-08T23:11:57.018Z,54.00
2019-01-08T23:14:25.266Z,54.00
2019-01-08T23:16:53.497Z,54.00
2019-01-08T23:19:21.737Z,54.00
2019-01-08T23:21:49.970Z,54.10
2019-01-08T23:24:18.232Z,54.20
2019-01-08T23:26:46.481Z,54.10
2019-01-08T23:29:14.738Z,54.10
2019-01-08T23:31:43.561Z,54.00
2019-01-08T23:34:12.046Z,54.10
2019-01-08T23:36:40.285Z,54.10
2019-01-08T23:39:08.513Z,54.10
2019-01-08T23:41:36.746Z,54.10
2019-01-08T23:44:04.998Z,54.00
2019-01-08T23:46:33.246Z,54.00
2019-01-08T23:49:01.484Z,54.00
2019-01-08T23:51:29.717Z,54.00
2019-01-08T23:53:57.965Z,53.90
2019-01-08T23:56:26.685Z,54.00
2019-01-08T23:58:55.492Z,53.80
